Terminal Aerodrome Forecast
Issued by NWS

Home | Current Version | Previous Version | Text Only | Print | Product List | Glossary On
Versions: 1 2 3 4 5 6 7 8 9 10 11 12 13 14 15 16 17 18 19 20
044
FTUS46 KSGX 110527
TAFSNA
TAF
KSNA 110527Z 1106/1206 VRB04KT 6SM BR BKN010 BKN150
     FM111000 VRB03KT 5SM -DZ BR OVC010
     FM111800 VRB06KT P6SM BKN015 BKN150=

USA.gov is the U.S. government's official web portal to all federal, state and local government web resources and services.